Time;durP1;ratioP1;P1;durP2;ratioP2;P2;SDS_P1;SDS_P2;PMS_P1;PMS_P2;Temp;Humidity;BMP_temperature;BMP_pressure;BME280_temperature;BME280_humidity;BME280_pressure;Samples;Min_cycle;Max_cycle;Signal;HPM_P1;HPM_P2
2023/07/16 00:01:11;;;;;;;1.45;1.35;;;23.40;99.90;;;;;;5038502;28;20545;-76
2023/07/16 00:03:37;;;;;;;0.20;0.20;;;23.80;99.90;;;;;;5039606;28;20029;-74
2023/07/16 00:06:03;;;;;;;0.10;0.10;;;;;;;;;;5039715;28;20024;-72
2023/07/16 00:08:29;;;;;;;1.65;1.17;;;23.60;99.90;;;;;;5039821;28;20032;-73
2023/07/16 00:10:55;;;;;;;0.30;0.30;;;23.70;99.90;;;;;;5039914;28;20393;-74
2023/07/16 00:13:21;;;;;;;0.03;0.03;;;23.80;99.90;;;;;;5039779;28;20086;-79
2023/07/16 00:15:46;;;;;;;0.22;0.22;;;23.80;99.90;;;;;;5039760;28;20021;-74
2023/07/16 00:18:12;;;;;;;0.40;0.30;;;23.60;99.90;;;;;;5039711;28;20411;-79
2023/07/16 00:20:38;;;;;;;2.55;0.65;;;23.60;99.90;;;;;;5039945;28;20082;-73
2023/07/16 00:23:04;;;;;;;0.10;0.10;;;;;;;;;;5039627;28;20033;-75
2023/07/16 00:25:30;;;;;;;0.10;0.10;;;23.90;99.90;;;;;;5039407;28;20100;-78
2023/07/16 00:27:55;;;;;;;2.40;1.38;;;24.30;99.90;;;;;;5038124;28;20131;-78
2023/07/16 00:30:21;;;;;;;1.55;0.75;;;23.90;99.90;;;;;;5039337;28;20044;-80
2023/07/16 00:32:47;;;;;;;1.40;1.30;;;23.50;99.90;;;;;;5039219;28;20029;-73
2023/07/16 00:35:13;;;;;;;0.10;0.10;;;24.00;99.90;;;;;;5039204;28;20115;-81
2023/07/16 00:37:38;;;;;;;0.00;0.00;;;24.80;99.90;;;;;;5039088;28;20096;-73
2023/07/16 00:40:05;;;;;;;1.30;1.20;;;24.10;99.90;;;;;;5039120;28;20090;-76
2023/07/16 00:42:31;;;;;;;1.38;1.27;;;24.20;99.90;;;;;;5039417;28;20380;-75
2023/07/16 00:44:57;;;;;;;0.10;0.10;;;24.20;99.90;;;;;;5039446;28;20017;-78
2023/07/16 00:47:22;;;;;;;0.20;0.20;;;24.20;99.90;;;;;;5039233;28;20021;-83
2023/07/16 00:49:48;;;;;;;0.20;0.20;;;23.90;99.90;;;;;;5039089;28;20387;-77
2023/07/16 00:52:18;;;;;;;1.08;0.98;;;23.90;99.90;;;;;;5039348;28;20244;-73
2023/07/16 00:54:44;;;;;;;0.35;0.28;;;23.70;99.90;;;;;;5040473;28;20105;-77
2023/07/16 00:57:10;;;;;;;0.93;0.88;;;23.40;99.90;;;;;;5038829;28;20021;-74
2023/07/16 00:59:36;;;;;;;0.20;0.20;;;23.60;99.90;;;;;;5039173;28;20217;-77
2023/07/16 01:02:02;;;;;;;0.10;0.10;;;23.60;99.90;;;;;;5038409;28;20336;-78
2023/07/16 01:04:28;;;;;;;0.30;0.30;;;23.50;99.90;;;;;;5037223;28;20328;-77
2023/07/16 01:06:57;;;;;;;0.10;0.10;;;23.20;99.90;;;;;;5038635;28;20028;-75
2023/07/16 01:09:28;;;;;;;0.35;0.35;;;23.10;99.90;;;;;;5038529;28;20033;-81
2023/07/16 01:11:56;;;;;;;4.95;3.50;;;22.70;99.90;;;;;;5038987;28;20113;-77
2023/07/16 01:14:41;;;;;;;0.10;0.10;;;22.60;99.90;;;;;;5038970;28;20419;-79
2023/07/16 01:17:08;;;;;;;0.30;0.30;;;22.40;99.90;;;;;;5037254;28;20313;-75
2023/07/16 01:19:35;;;;;;;0.22;0.22;;;21.40;99.90;;;;;;5038214;28;20025;-81
2023/07/16 01:22:07;;;;;;;1.85;1.75;;;21.80;99.90;;;;;;5038476;28;20021;-78
2023/07/16 01:24:53;;;;;;;0.10;0.10;;;21.80;99.90;;;;;;5038258;28;20107;-84
2023/07/16 01:27:39;;;;;;;0.30;0.30;;;21.80;99.90;;;;;;5036655;28;20112;-76
2023/07/16 01:30:09;;;;;;;0.10;0.10;;;21.60;99.90;;;;;;5037714;28;20017;-80
2023/07/16 01:32:36;;;;;;;1.15;1.05;;;21.40;99.90;;;;;;5036669;28;20086;-76
2023/07/16 01:35:04;;;;;;;0.38;0.32;;;21.20;99.90;;;;;;5038257;28;20021;-77
2023/07/16 01:37:30;;;;;;;0.20;0.20;;;;;;;;;;5037470;28;20554;-80
2023/07/16 01:39:56;;;;;;;0.50;0.50;;;;;;;;;;5036654;28;20037;-78
2023/07/16 01:42:22;;;;;;;0.63;0.63;;;21.10;99.90;;;;;;5037117;28;20264;-77
2023/07/16 01:44:48;;;;;;;2.58;2.47;;;20.90;99.90;;;;;;5038083;28;20119;-82
2023/07/16 01:47:32;;;;;;;0.73;0.73;;;21.10;99.90;;;;;;5038095;28;20569;-78
2023/07/16 01:49:57;;;;;;;0.20;0.20;;;21.10;99.90;;;;;;5038023;28;20052;-80
2023/07/16 01:52:24;;;;;;;0.40;0.40;;;;;;;;;;5038119;28;20052;-83
2023/07/16 01:54:50;;;;;;;1.33;1.23;;;;;;;;;;5038178;28;20021;-80
2023/07/16 01:57:16;;;;;;;2.05;1.88;;;;;;;;;;5038490;28;20527;-79
2023/07/16 01:59:46;;;;;;;0.10;0.10;;;22.70;99.90;;;;;;5038821;28;20024;-75
2023/07/16 02:02:12;;;;;;;0.00;0.00;;;;;;;;;;5038849;28;20221;-81
2023/07/16 02:04:40;;;;;;;7.53;1.48;;;23.10;99.90;;;;;;5038096;28;20039;-77
2023/07/16 02:07:06;;;;;;;0.32;0.32;;;23.10;99.90;;;;;;5038145;28;20025;-81
2023/07/16 02:09:33;;;;;;;0.10;0.10;;;22.90;99.90;;;;;;5037977;28;20264;-78
2023/07/16 02:11:59;;;;;;;0.40;0.40;;;23.20;99.90;;;;;;5037653;28;20037;-74
2023/07/16 02:14:25;;;;;;;0.17;0.17;;;;;;;;;;5035946;28;20063;-82
2023/07/16 02:16:51;;;;;;;1.33;1.33;;;23.30;99.90;;;;;;5037248;28;20052;-75
2023/07/16 02:19:16;;;;;;;0.10;0.10;;;23.20;99.90;;;;;;5037315;28;20025;-76
2023/07/16 02:21:42;;;;;;;0.10;0.10;;;23.30;99.90;;;;;;5037151;28;20507;-77
2023/07/16 02:24:08;;;;;;;0.30;0.30;;;23.10;99.90;;;;;;5036909;28;20523;-76
2023/07/16 02:26:34;;;;;;;0.85;0.85;;;22.80;99.90;;;;;;5036902;28;20381;-74
2023/07/16 02:29:00;;;;;;;0.60;0.60;;;22.40;99.90;;;;;;5036973;28;20108;-75
2023/07/16 02:31:33;;;;;;;1.08;1.00;;;22.40;99.90;;;;;;5035903;28;20519;-74
2023/07/16 02:33:59;;;;;;;0.17;0.17;;;;;;;;;;5037104;28;20112;-78
2023/07/16 02:36:25;;;;;;;1.75;1.65;;;22.00;99.90;;;;;;5036945;28;20279;-76
2023/07/16 02:38:51;;;;;;;0.30;0.30;;;;;;;;;;5036981;28;20021;-75
2023/07/16 02:41:16;;;;;;;0.10;0.10;;;22.20;99.90;;;;;;5036851;28;20165;-77
2023/07/16 02:43:42;;;;;;;0.20;0.20;;;22.40;99.90;;;;;;5036826;28;20036;-78
2023/07/16 02:46:08;;;;;;;0.10;0.10;;;23.10;99.90;;;;;;5037141;28;20112;-81
2023/07/16 02:48:34;;;;;;;0.40;0.40;;;22.60;99.90;;;;;;5036972;28;20024;-78
2023/07/16 02:51:08;;;;;;;0.10;0.10;;;22.80;99.90;;;;;;5036985;28;20074;-75
2023/07/16 02:53:34;;;;;;;0.10;0.10;;;22.80;99.90;;;;;;5037191;28;20039;-83
2023/07/16 02:56:00;;;;;;;0.10;0.10;;;22.80;99.90;;;;;;5035349;28;20407;-76
2023/07/16 02:58:26;;;;;;;0.70;0.70;;;22.70;99.90;;;;;;5036898;28;20348;-83
2023/07/16 03:00:52;;;;;;;0.77;0.77;;;22.80;99.90;;;;;;5037186;28;20564;-82
2023/07/16 03:03:17;;;;;;;0.30;0.30;;;22.70;99.90;;;;;;5036938;28;20033;-80
2023/07/16 03:05:43;;;;;;;0.77;0.77;;;22.90;99.90;;;;;;5036911;28;20083;-81
2023/07/16 03:08:09;;;;;;;0.10;0.10;;;23.00;99.90;;;;;;5037033;28;20029;-76
2023/07/16 03:10:35;;;;;;;0.10;0.10;;;22.80;99.90;;;;;;5036745;28;20071;-81
2023/07/16 03:13:00;;;;;;;0.15;0.15;;;23.00;99.90;;;;;;5036718;28;20088;-78
2023/07/16 03:15:26;;;;;;;13.65;0.93;;;23.10;99.90;;;;;;5037267;28;20024;-79
2023/07/16 03:17:52;;;;;;;0.55;0.55;;;22.90;99.90;;;;;;5036992;28;20017;-83
2023/07/16 03:20:17;;;;;;;0.93;0.93;;;23.10;99.90;;;;;;5038250;28;20085;-81
2023/07/16 03:22:43;;;;;;;0.22;0.22;;;22.60;99.90;;;;;;5036776;28;20228;-83
2023/07/16 03:25:09;;;;;;;0.10;0.10;;;22.60;99.90;;;;;;5037905;28;20104;-77
2023/07/16 03:27:35;;;;;;;0.20;0.20;;;23.10;99.90;;;;;;5038096;28;20384;-75
2023/07/16 03:30:02;;;;;;;0.10;0.10;;;23.00;99.90;;;;;;5036375;28;20100;-76
2023/07/16 03:32:27;;;;;;;0.10;0.10;;;23.10;99.90;;;;;;5036365;28;20052;-75
2023/07/16 03:34:53;;;;;;;0.47;0.47;;;23.20;99.90;;;;;;5036450;28;20515;-81
2023/07/16 03:37:19;;;;;;;0.65;0.65;;;23.30;99.90;;;;;;5036432;28;20078;-73
2023/07/16 03:39:45;;;;;;;0.17;0.17;;;23.30;99.90;;;;;;5036069;28;20372;-78
2023/07/16 03:42:10;;;;;;;0.10;0.10;;;23.40;99.90;;;;;;5036106;28;20059;-79
2023/07/16 03:44:36;;;;;;;0.68;0.68;;;23.50;99.90;;;;;;5036374;28;20033;-75
2023/07/16 03:47:02;;;;;;;0.40;0.40;;;23.50;99.90;;;;;;5036250;28;20221;-76
2023/07/16 03:49:28;;;;;;;0.98;0.90;;;23.60;99.90;;;;;;5034730;28;20348;-76
2023/07/16 03:51:54;;;;;;;0.30;0.30;;;23.30;99.90;;;;;;5036328;28;20017;-77
2023/07/16 03:54:19;;;;;;;0.45;0.45;;;23.30;99.90;;;;;;5036238;28;20013;-77
2023/07/16 03:56:45;;;;;;;0.10;0.10;;;23.40;99.90;;;;;;5036310;28;20549;-75
2023/07/16 03:59:45;;;;;;;12.73;11.38;;;23.30;99.90;;;;;;5036150;28;20033;-76
2023/07/16 04:02:14;;;;;;;0.20;0.20;;;;;;;;;;4981190;28;20615;-78
2023/07/16 04:04:40;;;;;;;0.40;0.40;;;;;;;;;;4980634;28;20132;-73
2023/07/16 04:07:06;;;;;;;0.20;0.20;;;;;;;;;;4997135;28;20034;-74
2023/07/16 04:09:32;;;;;;;0.10;0.10;;;22.60;99.90;;;;;;4996830;28;20034;-76
2023/07/16 04:11:58;;;;;;;0.40;0.40;;;22.60;99.90;;;;;;4996874;28;20041;-77
2023/07/16 04:14:23;;;;;;;0.30;0.30;;;22.90;99.90;;;;;;4996911;28;20531;-78
2023/07/16 04:16:49;;;;;;;0.47;0.47;;;22.90;99.90;;;;;;4996687;28;20493;-74
2023/07/16 04:19:15;;;;;;;0.52;0.32;;;22.50;99.90;;;;;;4996707;28;20081;-76
2023/07/16 04:21:41;;;;;;;0.10;0.10;;;22.10;99.90;;;;;;4996514;28;20100;-80
2023/07/16 04:24:06;;;;;;;0.15;0.15;;;22.40;99.90;;;;;;4996741;28;20154;-76
2023/07/16 04:26:32;;;;;;;1.13;1.10;;;22.60;99.90;;;;;;4996527;28;20117;-76
2023/07/16 04:28:58;;;;;;;0.43;0.43;;;22.60;99.90;;;;;;4980118;28;20629;-81
2023/07/16 04:31:24;;;;;;;0.17;0.17;;;22.60;99.90;;;;;;4996326;28;20054;-82
2023/07/16 04:33:50;;;;;;;1.20;0.68;;;22.50;99.90;;;;;;4996624;28;20112;-78
2023/07/16 04:36:16;;;;;;;0.35;0.35;;;22.40;99.90;;;;;;4996516;28;20609;-80
2023/07/16 04:38:42;;;;;;;0.10;0.10;;;22.60;99.90;;;;;;5011432;28;20396;-78
2023/07/16 04:41:07;;;;;;;0.90;0.90;;;22.80;99.90;;;;;;5040344;28;20082;-74
2023/07/16 04:43:33;;;;;;;0.57;0.57;;;23.00;99.90;;;;;;5038715;28;20116;-81
2023/07/16 04:45:59;;;;;;;0.60;0.50;;;23.10;99.90;;;;;;5039229;28;20025;-75
2023/07/16 04:48:26;;;;;;;0.30;0.30;;;23.20;99.90;;;;;;5039080;28;20583;-76
2023/07/16 04:50:54;;;;;;;2.30;0.90;;;23.40;99.90;;;;;;5038937;28;20239;-75
2023/07/16 04:53:21;;;;;;;0.10;0.10;;;23.50;99.90;;;;;;5038910;28;20237;-73
2023/07/16 04:55:46;;;;;;;1.85;1.48;;;23.70;99.90;;;;;;5038647;28;20021;-79
2023/07/16 04:58:12;;;;;;;0.45;0.45;;;23.70;99.90;;;;;;5038678;28;20044;-81
2023/07/16 05:00:38;;;;;;;0.30;0.30;;;23.80;99.90;;;;;;5038836;28;20507;-82
2023/07/16 05:03:04;;;;;;;0.10;0.10;;;23.80;99.90;;;;;;5038550;28;20033;-78
2023/07/16 05:05:30;;;;;;;0.10;0.10;;;23.90;99.90;;;;;;5038832;28;20017;-76
2023/07/16 05:07:56;;;;;;;1.58;0.75;;;23.80;99.90;;;;;;5039744;28;20029;-76
2023/07/16 05:10:21;;;;;;;0.45;0.45;;;23.90;99.90;;;;;;5038330;28;20114;-75
2023/07/16 05:12:47;;;;;;;0.10;0.10;;;23.90;99.90;;;;;;5037768;28;20025;-80
2023/07/16 05:15:13;;;;;;;1.23;1.17;;;23.90;99.90;;;;;;5038834;28;20625;-80
2023/07/16 05:17:39;;;;;;;0.20;0.20;;;23.90;99.90;;;;;;5038690;28;20021;-73
2023/07/16 05:20:05;;;;;;;0.10;0.10;;;24.00;99.90;;;;;;5038458;28;20025;-76
2023/07/16 05:22:32;;;;;;;0.25;0.20;;;24.10;99.90;;;;;;5038405;28;20036;-82
2023/07/16 05:24:58;;;;;;;0.38;0.35;;;24.10;99.90;;;;;;5039536;28;20025;-73
2023/07/16 05:27:24;;;;;;;0.40;0.40;;;24.10;99.90;;;;;;5038575;28;20032;-79
2023/07/16 05:29:50;;;;;;;0.10;0.10;;;24.20;99.90;;;;;;5040777;28;20594;-74
2023/07/16 05:32:15;;;;;;;0.30;0.25;;;24.10;99.90;;;;;;5038551;28;20495;-79
2023/07/16 05:34:41;;;;;;;1.75;0.40;;;24.00;99.90;;;;;;5040664;28;20021;-75
2023/07/16 05:37:07;;;;;;;1.67;0.88;;;24.10;99.90;;;;;;5038830;28;20333;-76
2023/07/16 05:39:33;;;;;;;1.77;0.85;;;24.00;99.90;;;;;;5039425;28;20138;-77
2023/07/16 05:42:01;;;;;;;0.68;0.68;;;24.00;99.90;;;;;;5039202;28;20507;-78
2023/07/16 05:44:27;;;;;;;1.30;1.20;;;24.00;99.90;;;;;;5040456;28;20033;-74
2023/07/16 05:46:53;;;;;;;1.55;0.90;;;24.00;99.90;;;;;;5038142;28;20489;-77
2023/07/16 05:49:19;;;;;;;0.40;0.40;;;24.10;99.90;;;;;;5038630;28;20216;-76
2023/07/16 05:51:45;;;;;;;0.40;0.40;;;24.30;99.90;;;;;;5039067;28;20210;-76
2023/07/16 05:54:10;;;;;;;0.20;0.20;;;24.30;99.90;;;;;;5038469;28;20032;-76
2023/07/16 05:56:36;;;;;;;0.38;0.38;;;24.50;99.90;;;;;;5037588;28;20331;-83
2023/07/16 05:59:02;;;;;;;1.20;0.90;;;24.60;99.90;;;;;;5037419;28;20120;-76
2023/07/16 06:01:28;;;;;;;1.75;1.60;;;21.00;99.90;;;;;;5037320;28;20060;-79
2023/07/16 06:03:53;;;;;;;0.73;0.73;;;24.70;99.90;;;;;;5037245;28;20110;-78
2023/07/16 06:06:19;;;;;;;0.52;0.52;;;24.50;99.90;;;;;;5037564;28;20572;-76
2023/07/16 06:08:46;;;;;;;1.10;0.52;;;24.60;99.90;;;;;;5038658;28;20035;-75
2023/07/16 06:11:13;;;;;;;0.98;0.95;;;24.70;99.90;;;;;;5040744;28;20021;-74
2023/07/16 06:13:39;;;;;;;0.95;0.85;;;24.70;99.90;;;;;;5038475;28;20037;-74
2023/07/16 06:16:05;;;;;;;0.57;0.50;;;24.90;99.90;;;;;;5038750;28;20033;-75
2023/07/16 06:18:31;;;;;;;2.83;2.72;;;25.00;99.90;;;;;;5038936;28;20678;-74
2023/07/16 06:20:57;;;;;;;0.40;0.40;;;25.10;99.90;;;;;;5037701;28;20021;-80
2023/07/16 06:23:23;;;;;;;0.30;0.30;;;25.10;99.90;;;;;;5038691;28;20028;-73
2023/07/16 06:25:54;;;;;;;0.43;0.40;;;25.10;99.90;;;;;;5037974;28;20224;-77
2023/07/16 06:28:20;;;;;;;8.85;8.50;;;25.20;99.90;;;;;;5038254;28;20345;-74
2023/07/16 06:30:46;;;;;;;0.40;0.30;;;25.10;99.90;;;;;;5037410;28;20640;-80
2023/07/16 06:33:11;;;;;;;0.38;0.38;;;25.30;99.90;;;;;;5036804;28;20028;-77
2023/07/16 06:35:37;;;;;;;0.20;0.20;;;25.30;99.90;;;;;;5036951;28;20493;-79
2023/07/16 06:38:04;;;;;;;0.30;0.30;;;25.40;99.90;;;;;;5035532;28;20287;-80
2023/07/16 06:40:30;;;;;;;0.22;0.22;;;25.50;99.90;;;;;;5035268;28;20033;-75
2023/07/16 06:42:56;;;;;;;0.55;0.55;;;25.50;99.90;;;;;;5036958;28;20033;-78
2023/07/16 06:45:22;;;;;;;11.60;3.05;;;25.60;99.90;;;;;;5038415;28;20067;-74
2023/07/16 06:47:49;;;;;;;0.20;0.20;;;25.70;99.90;;;;;;5038698;28;20514;-73
2023/07/16 06:50:15;;;;;;;0.10;0.10;;;25.40;99.90;;;;;;5038447;28;20024;-72
2023/07/16 06:52:41;;;;;;;2.55;2.20;;;25.60;99.90;;;;;;5035632;28;20037;-83
2023/07/16 06:55:07;;;;;;;4.22;3.22;;;25.70;99.90;;;;;;5037017;28;20037;-74
2023/07/16 06:57:33;;;;;;;0.43;0.43;;;25.90;99.90;;;;;;5038460;28;20102;-77
2023/07/16 06:59:58;;;;;;;3.53;2.30;;;25.90;99.90;;;;;;5037412;28;20498;-77
2023/07/16 07:02:24;;;;;;;1.70;1.05;;;25.30;99.90;;;;;;5038157;28;20501;-73
2023/07/16 07:04:51;;;;;;;0.52;0.52;;;25.50;99.90;;;;;;5036000;28;20159;-76
2023/07/16 07:07:17;;;;;;;0.30;0.30;;;25.70;99.90;;;;;;5039288;28;20628;-75
2023/07/16 07:09:42;;;;;;;1.95;1.77;;;25.70;99.90;;;;;;5043181;28;20040;-75
2023/07/16 07:12:08;;;;;;;0.13;0.13;;;25.50;99.90;;;;;;5040332;28;20024;-74
2023/07/16 07:14:34;;;;;;;0.43;0.43;;;25.60;99.90;;;;;;5039260;28;20032;-73
2023/07/16 07:17:00;;;;;;;0.68;0.55;;;25.80;99.90;;;;;;5038807;28;20033;-77
2023/07/16 07:19:25;;;;;;;3.92;2.05;;;26.00;99.90;;;;;;5038766;28;20027;-76
2023/07/16 07:21:51;;;;;;;0.65;0.63;;;26.20;99.90;;;;;;5037865;28;20656;-80
2023/07/16 07:24:17;;;;;;;0.47;0.47;;;26.30;99.90;;;;;;5037262;28;20510;-77
2023/07/16 07:26:43;;;;;;;0.75;0.75;;;26.50;99.90;;;;;;5037350;28;20029;-77
2023/07/16 07:29:08;;;;;;;0.65;0.63;;;26.60;99.90;;;;;;5036993;28;20032;-73
2023/07/16 07:31:34;;;;;;;0.20;0.20;;;26.60;99.90;;;;;;5036997;28;20021;-72
2023/07/16 07:34:00;;;;;;;1.38;1.25;;;26.70;99.90;;;;;;5035968;28;20078;-79
2023/07/16 07:36:26;;;;;;;0.40;0.38;;;26.80;99.90;;;;;;5039161;28;20663;-78
2023/07/16 07:38:52;;;;;;;0.10;0.10;;;26.90;99.90;;;;;;5041701;28;20105;-72
2023/07/16 07:41:18;;;;;;;1.45;1.25;;;26.90;99.90;;;;;;5042490;28;20225;-78
2023/07/16 07:43:43;;;;;;;0.10;0.10;;;27.00;99.90;;;;;;5042486;28;20033;-74
2023/07/16 07:46:10;;;;;;;0.43;0.43;;;27.00;99.90;;;;;;5044538;28;20486;-74
2023/07/16 07:48:35;;;;;;;0.40;0.30;;;27.00;99.90;;;;;;5039599;28;20056;-78
2023/07/16 07:51:01;;;;;;;0.43;0.43;;;27.10;99.90;;;;;;5041158;28;20111;-74
2023/07/16 07:53:27;;;;;;;1.23;1.13;;;26.50;99.90;;;;;;5041323;28;20031;-74
2023/07/16 07:55:54;;;;;;;0.00;0.00;;;27.00;99.90;;;;;;5041285;28;20017;-79
2023/07/16 07:58:20;;;;;;;0.52;0.43;;;27.00;99.90;;;;;;5041325;28;20041;-74
2023/07/16 08:00:46;;;;;;;0.30;0.30;;;28.10;99.90;;;;;;5040486;28;20021;-81
2023/07/16 08:03:11;;;;;;;3.63;3.35;;;27.20;99.90;;;;;;5039740;28;20065;-73
2023/07/16 08:05:37;;;;;;;3.95;1.45;;;27.40;99.90;;;;;;5040513;28;20061;-78
2023/07/16 08:08:03;;;;;;;0.85;0.75;;;27.60;99.90;;;;;;5040552;28;20053;-79
2023/07/16 08:10:29;;;;;;;0.15;0.15;;;27.90;99.90;;;;;;5040447;28;20032;-74
2023/07/16 08:12:55;;;;;;;0.38;0.30;;;29.40;99.90;;;;;;5040452;28;20096;-79
2023/07/16 08:15:21;;;;;;;1.40;1.17;;;28.10;99.90;;;;;;5040451;28;20096;-78
2023/07/16 08:17:47;;;;;;;0.10;0.10;;;28.30;99.90;;;;;;5040272;28;20041;-77
2023/07/16 08:20:13;;;;;;;0.00;0.00;;;28.60;99.90;;;;;;5040806;28;20036;-75
2023/07/16 08:22:39;;;;;;;0.82;0.50;;;27.20;99.90;;;;;;5040550;28;20061;-78
2023/07/16 08:25:08;;;;;;;2.28;1.35;;;28.90;99.90;;;;;;5040229;28;20086;-76
2023/07/16 08:27:34;;;;;;;1.15;1.05;;;28.60;99.90;;;;;;5038993;28;20049;-75
2023/07/16 08:30:00;;;;;;;0.00;0.00;;;28.60;99.90;;;;;;5040190;28;20037;-77
2023/07/16 08:32:26;;;;;;;0.20;0.20;;;29.00;99.90;;;;;;5040183;28;20122;-76
2023/07/16 08:34:52;;;;;;;0.47;0.43;;;29.20;99.90;;;;;;5040139;28;20055;-80
2023/07/16 08:37:18;;;;;;;1.00;0.90;;;29.40;99.50;;;;;;5040087;28;20033;-81
2023/07/16 08:39:43;;;;;;;0.60;0.28;;;29.50;99.30;;;;;;5039786;28;20116;-75
2023/07/16 08:42:13;;;;;;;1.55;1.15;;;29.60;99.20;;;;;;5039903;28;20029;-81
2023/07/16 08:44:39;;;;;;;0.25;0.25;;;29.50;99.50;;;;;;5039563;28;20279;-76
2023/07/16 08:47:06;;;;;;;0.00;0.00;;;29.60;99.40;;;;;;5039271;28;20525;-77
2023/07/16 08:49:34;;;;;;;1.00;0.90;;;29.70;99.00;;;;;;5039881;28;20106;-74
2023/07/16 08:52:02;;;;;;;0.55;0.55;;;29.60;98.70;;;;;;5039602;28;20556;-79
2023/07/16 08:54:28;;;;;;;0.15;0.15;;;29.90;98.60;;;;;;5038517;28;20028;-84
2023/07/16 08:56:54;;;;;;;0.63;0.43;;;30.00;98.10;;;;;;5039172;28;20593;-77
2023/07/16 08:59:21;;;;;;;3.53;2.92;;;30.00;98.40;;;;;;5039385;28;20033;-78
2023/07/16 09:01:48;;;;;;;5.60;2.97;;;30.10;97.60;;;;;;5040419;28;20017;-77
2023/07/16 09:04:17;;;;;;;4.28;3.20;;;30.00;97.20;;;;;;5039357;28;20659;-78
2023/07/16 09:06:43;;;;;;;0.90;0.82;;;30.10;96.50;;;;;;5039488;28;20020;-75
2023/07/16 09:09:20;;;;;;;1.00;0.85;;;30.10;96.50;;;;;;5039279;28;20028;-83
2023/07/16 09:11:47;;;;;;;16.75;1.30;;;30.10;96.40;;;;;;5040147;28;20033;-79
2023/07/16 09:14:18;;;;;;;0.15;0.15;;;30.30;96.70;;;;;;5038697;28;20545;-74
2023/07/16 09:16:49;;;;;;;1.85;0.88;;;30.50;96.30;;;;;;5039486;28;20700;-74
2023/07/16 09:19:17;;;;;;;0.95;0.47;;;30.70;96.30;;;;;;5038985;28;20009;-74
2023/07/16 09:21:45;;;;;;;0.10;0.10;;;30.80;95.80;;;;;;5038722;28;20070;-77
2023/07/16 09:24:11;;;;;;;0.22;0.22;;;32.50;95.70;;;;;;5038697;28;20578;-74
2023/07/16 09:26:38;;;;;;;1.17;0.85;;;31.30;94.90;;;;;;5038624;28;20021;-75
2023/07/16 09:29:10;;;;;;;0.88;0.73;;;31.30;94.70;;;;;;5038508;28;20095;-81
2023/07/16 09:31:35;;;;;;;0.90;0.90;;;31.20;94.10;;;;;;5038529;28;20029;-75
2023/07/16 09:34:01;;;;;;;0.30;0.30;;;31.30;94.20;;;;;;5037534;28;20033;-74
2023/07/16 09:36:27;;;;;;;0.70;0.60;;;31.40;93.70;;;;;;5038346;28;20028;-83
2023/07/16 09:38:58;;;;;;;0.25;0.25;;;31.60;93.90;;;;;;5038395;28;20752;-82
2023/07/16 09:41:24;;;;;;;1.13;1.02;;;31.70;93.60;;;;;;5037265;28;20043;-77
2023/07/16 09:43:50;;;;;;;2.00;1.60;;;31.90;92.70;;;;;;5038677;28;20028;-78
2023/07/16 09:46:16;;;;;;;0.30;0.30;;;31.80;92.10;;;;;;5041452;28;20683;-76
2023/07/16 09:48:42;;;;;;;0.20;0.20;;;31.80;91.20;;;;;;5039941;28;20033;-75
2023/07/16 09:51:12;;;;;;;0.10;0.10;;;31.70;90.90;;;;;;5040478;28;20021;-74
2023/07/16 09:53:41;;;;;;;25.58;2.05;;;31.70;90.60;;;;;;5039178;28;20085;-81
2023/07/16 09:56:12;;;;;;;0.35;0.10;;;30.00;89.70;;;;;;5039027;28;20569;-77
2023/07/16 09:58:38;;;;;;;0.93;0.80;;;31.70;89.50;;;;;;5036630;28;20091;-82
2023/07/16 10:01:04;;;;;;;0.95;0.77;;;32.00;90.70;;;;;;5039134;28;20029;-82
2023/07/16 10:03:30;;;;;;;1.55;1.05;;;31.80;89.20;;;;;;5038192;28;20068;-74
2023/07/16 10:06:08;;;;;;;0.60;0.60;;;32.20;88.00;;;;;;5038836;28;20623;-78
2023/07/16 10:08:34;;;;;;;3.33;1.45;;;32.20;88.60;;;;;;5038418;28;20021;-81
2023/07/16 10:11:00;;;;;;;0.40;0.40;;;32.30;88.90;;;;;;5037556;28;20662;-76
2023/07/16 10:13:27;;;;;;;0.65;0.65;;;32.50;89.10;;;;;;5039834;28;20052;-78
2023/07/16 10:15:58;;;;;;;1.08;0.77;;;32.70;88.10;;;;;;5039882;28;20017;-77
2023/07/16 10:18:25;;;;;;;0.70;0.70;;;32.90;87.70;;;;;;5040702;28;20100;-76
2023/07/16 10:20:52;;;;;;;2.83;1.23;;;32.80;87.40;;;;;;5039089;28;20012;-76
2023/07/16 10:23:19;;;;;;;0.90;0.88;;;33.30;86.60;;;;;;5039394;28;20033;-77
2023/07/16 10:26:08;;;;;;;0.10;0.10;;;32.20;84.50;;;;;;5041075;28;20663;-73
2023/07/16 10:28:36;;;;;;;0.25;0.25;;;33.30;85.10;;;;;;5044966;28;20498;-78
2023/07/16 10:31:02;;;;;;;0.40;0.40;;;33.20;85.00;;;;;;5040694;28;20075;-79
2023/07/16 10:33:28;;;;;;;5.88;1.83;;;33.80;84.50;;;;;;5039307;28;20107;-82
2023/07/16 10:36:00;;;;;;;0.57;0.35;;;33.60;80.60;;;;;;5040404;28;20032;-77
2023/07/16 10:38:26;;;;;;;;;;;33.70;79.70;;;;;;5040059;28;20021;-81
2023/07/16 10:40:52;;;;;;;1.85;0.65;;;33.70;78.90;;;;;;5039812;28;20558;-79
2023/07/16 10:43:18;;;;;;;1.80;1.27;;;33.70;78.00;;;;;;5037040;28;20629;-80
2023/07/16 10:45:46;;;;;;;0.22;0.22;;;33.80;75.50;;;;;;5038670;28;20512;-79
2023/07/16 10:48:12;;;;;;;1.10;0.88;;;33.90;65.40;;;;;;5038073;28;20048;-80
2023/07/16 10:50:38;;;;;;;0.20;0.20;;;34.00;69.90;;;;;;5037924;28;20017;-78
2023/07/16 10:53:06;;;;;;;0.75;0.75;;;34.00;70.30;;;;;;5037636;28;20025;-76
2023/07/16 10:55:37;;;;;;;1.08;0.85;;;34.10;70.50;;;;;;5037783;28;20024;-77
2023/07/16 10:58:07;;;;;;;1.10;0.55;;;34.20;70.10;;;;;;5038057;28;20485;-82
2023/07/16 11:00:38;;;;;;;1.95;0.82;;;34.50;69.30;;;;;;5036701;28;20526;-81
2023/07/16 11:03:07;;;;;;;0.40;0.40;;;34.60;67.60;;;;;;5037915;28;20083;-78
2023/07/16 11:05:32;;;;;;;0.20;0.20;;;34.40;68.70;;;;;;5037221;28;20052;-74
2023/07/16 11:07:58;;;;;;;0.80;0.80;;;34.80;69.90;;;;;;5037176;28;20091;-75
2023/07/16 11:10:25;;;;;;;0.20;0.20;;;34.90;70.10;;;;;;5037021;28;20724;-75
2023/07/16 11:12:55;;;;;;;2.53;1.40;;;35.10;69.20;;;;;;5042043;28;20055;-76
2023/07/16 11:15:34;;;;;;;0.65;0.65;;;35.30;67.20;;;;;;5041672;28;20017;-77
2023/07/16 11:18:00;;;;;;;0.20;0.20;;;35.60;62.80;;;;;;5040940;28;20021;-76
2023/07/16 11:20:26;;;;;;;3.40;0.98;;;36.00;63.40;;;;;;5042273;28;20025;-75
2023/07/16 11:22:52;;;;;;;0.52;0.20;;;36.40;60.90;;;;;;5041781;28;20292;-78
2023/07/16 11:25:40;;;;;;;0.22;0.22;;;36.50;62.60;;;;;;5043288;28;20094;-78
2023/07/16 11:28:09;;;;;;;0.20;0.20;;;36.50;60.70;;;;;;5043804;28;20445;-76
2023/07/16 11:30:34;;;;;;;0.32;0.32;;;38.60;60.70;;;;;;5043739;28;20025;-77
2023/07/16 11:33:00;;;;;;;1.35;0.52;;;35.80;59.50;;;;;;5041407;28;20033;-76
2023/07/16 11:35:26;;;;;;;0.40;0.40;;;37.00;60.80;;;;;;5041413;28;20512;-77
2023/07/16 11:37:54;;;;;;;1.35;1.02;;;37.40;59.90;;;;;;5041683;28;20024;-77
2023/07/16 11:40:20;;;;;;;0.65;0.30;;;37.60;57.90;;;;;;5041824;28;20029;-77
2023/07/16 11:42:47;;;;;;;0.17;0.17;;;38.00;56.00;;;;;;5039912;28;20124;-77
2023/07/16 11:45:26;;;;;;;0.20;0.20;;;38.20;56.70;;;;;;5041726;28;20072;-80
2023/07/16 11:47:52;;;;;;;0.40;0.40;;;38.40;54.80;;;;;;5024501;28;20032;-80
2023/07/16 11:50:18;;;;;;;0.30;0.30;;;38.60;55.00;;;;;;5041401;28;20024;-75
2023/07/16 11:52:56;;;;;;;1.00;1.00;;;39.00;53.40;;;;;;5041240;28;20017;-76
2023/07/16 11:55:22;;;;;;;0.63;0.57;;;39.00;52.60;;;;;;5040898;28;20014;-74
2023/07/16 11:57:48;;;;;;;0.10;0.10;;;39.50;52.30;;;;;;5041190;28;20044;-80
2023/07/16 12:00:14;;;;;;;0.63;0.28;;;39.90;52.70;;;;;;5040905;28;20017;-75
2023/07/16 12:02:39;;;;;;;0.20;0.20;;;40.10;51.20;;;;;;5040736;28;20567;-76
2023/07/16 12:05:06;;;;;;;0.10;0.10;;;40.40;50.90;;;;;;5040395;28;20032;-76
2023/07/16 12:07:36;;;;;;;0.95;0.57;;;40.50;51.50;;;;;;5041354;28;20575;-77
2023/07/16 12:10:05;;;;;;;0.20;0.20;;;41.20;52.70;;;;;;5043203;28;20048;-76
2023/07/16 12:12:31;;;;;;;0.52;0.17;;;40.80;52.30;;;;;;5040787;28;20017;-79
2023/07/16 12:14:57;;;;;;;0.20;0.15;;;41.20;50.70;;;;;;5042759;28;20025;-78
2023/07/16 12:17:23;;;;;;;0.10;0.10;;;41.00;51.10;;;;;;5042005;28;20052;-79
2023/07/16 12:19:48;;;;;;;0.40;0.40;;;41.20;50.50;;;;;;5041660;28;20636;-74
2023/07/16 12:22:17;;;;;;;0.30;0.30;;;41.50;49.80;;;;;;5040261;28;20696;-81
2023/07/16 12:24:43;;;;;;;1.17;0.47;;;42.00;49.80;;;;;;5041087;28;20037;-74
2023/07/16 12:27:09;;;;;;;0.10;0.10;;;42.70;49.70;;;;;;5040344;28;20109;-81
2023/07/16 12:29:35;;;;;;;0.20;0.20;;;42.70;49.00;;;;;;5040806;28;20782;-73
2023/07/16 12:32:01;;;;;;;0.45;0.40;;;42.80;49.70;;;;;;5040190;28;20017;-75
2023/07/16 12:34:27;;;;;;;0.47;0.40;;;42.90;48.50;;;;;;5042571;28;20045;-79
2023/07/16 12:36:54;;;;;;;0.20;0.20;;;43.00;49.20;;;;;;5040600;28;20017;-80
2023/07/16 12:39:20;;;;;;;0.57;0.57;;;42.70;49.10;;;;;;5041308;28;20013;-79
2023/07/16 12:41:46;;;;;;;0.43;0.40;;;43.40;49.30;;;;;;5039940;28;20017;-79
2023/07/16 12:44:12;;;;;;;0.88;0.57;;;42.50;48.50;;;;;;5038649;28;20638;-75
2023/07/16 12:46:38;;;;;;;0.40;0.40;;;43.70;47.60;;;;;;5040123;28;20017;-75
2023/07/16 12:49:04;;;;;;;0.38;0.30;;;43.60;47.80;;;;;;5040684;28;20009;-82